Flight Track Log - Related Links

Times and Time Zones

All times are in EDT time to prevent confusion due to time zone crossing. See the EJA829P flight status page for this flight to view local times or setup timezone preferences in your user account.

Time Position Orientation Groundspeed Altitude Reporting Facility
EDT Latitude Longitude Course Direction KTS MPH feet Rate Location/Type
Wed 01:36:51 PM 39.9947 -82.8978 274° West 153 176 1,300  Level Indianapolis Center
Wed 01:37:24 PM 39.9964 -82.9278 274° West 190 219 2,600 2,716 Climbing Indianapolis Center
Wed 01:38:26 PM 39.9975 -83.0050 271° West 206 237 5,600 2,952 Climbing Indianapolis Center
Wed 01:39:28 PM 40.0014 -83.1203 273° West 269 310 8,700 2,855 Climbing Indianapolis Center
Wed 01:40:30 PM 40.0050 -83.2244 273° West 285 328 11,500 2,613 Climbing Indianapolis Center
Wed 01:41:32 PM 40.0222 -83.3303 282° West 297 342 14,100 2,323 Climbing Indianapolis Center
Wed 01:42:34 PM 40.0400 -83.4406 282° West 310 357 16,300 1,902 Climbing Indianapolis Center
Wed 01:43:35 PM 40.0581 -83.5561 282° West 324 373 18,000 1,366 Climbing Indianapolis Center
Wed 01:44:37 PM 40.0783 -83.6853 282° West 359 413 19,100 1,694 Climbing Indianapolis Center
Wed 01:45:39 PM 40.1017 -83.8328 282° West 354 407 21,500 1,984 Climbing Indianapolis Center
Wed 01:46:41 PM 40.1219 -83.9597 282° West 357 411 23,200 1,597 Climbing Indianapolis Center
Wed 01:47:43 PM 40.1419 -84.0917 281° West 367 422 24,800 1,548 Climbing Indianapolis Center
Wed 01:48:45 PM 40.1625 -84.2261 281° West 374 430 26,400 1,366 Climbing Indianapolis Center
Wed 01:49:46 PM 40.1828 -84.3614 281° West 376 433 27,600 1,171 Climbing Indianapolis Center
Wed 01:50:48 PM 40.2033 -84.5008 281° West 387 445 28,800 1,403 Climbing Indianapolis Center
Wed 01:51:50 PM 40.2242 -84.6408 281° West 389 448 30,500 1,548 Climbing Indianapolis Center
Wed 01:52:52 PM 40.2439 -84.7764 281° West 378 435 32,000 1,403 Climbing Indianapolis Center
Wed 01:53:54 PM 40.2653 -84.9108 282° West 376 433 33,400 1,452 Climbing Indianapolis Center
Wed 01:54:56 PM 40.2869 -85.0725 280° West 379 436 35,000 1,268 Climbing Indianapolis Center
Wed 01:55:57 PM 40.3058 -85.2047 281° West 373 429 36,000 488 Climbing Indianapolis Center
Wed 01:56:59 PM 40.3256 -85.3464 280° West 394 453 36,000  Level Indianapolis Center
Wed 01:58:01 PM 40.3469 -85.4925 281° West 409 471 36,000  Level Indianapolis Center
Wed 01:59:03 PM 40.3683 -85.6422 281° West 419 482 36,000  Level Indianapolis Center
Wed 02:00:05 PM 40.3881 -85.7928 280° West 423 487 36,000  Level Indianapolis Center
Wed 02:01:03 PM 40.4094 -85.9436 281° West 430 495 36,000  Level Chicago Center
Wed 02:02:05 PM 40.4333 -86.1258 280° West 428 493 36,000  Level Chicago Center
Wed 02:03:07 PM 40.4544 -86.2797 280° West 431 496 36,000  Level Chicago Center
Wed 02:04:09 PM 40.4881 -86.4292 287° West 430 495 36,000  Level Chicago Center
Wed 02:05:11 PM 40.5239 -86.5767 288° West 429 494 36,000  Level Chicago Center
Wed 02:06:13 PM 40.5606 -86.7256 288° West 430 495 36,000  Level Chicago Center
Wed 02:08:17 PM 40.6394 -87.0544 288° West 434 499 36,000  Level Chicago Center
Wed 02:09:19 PM 40.6706 -87.1925 287° West 429 494 36,000  Level Chicago Center
Wed 02:10:22 PM 40.7142 -87.3719 288° West 431 496 36,000  Level Chicago Center
Wed 02:11:24 PM 40.7500 -87.5211 288° West 428 493 36,000  Level Chicago Center
Wed 02:12:26 PM 40.7839 -87.6717 287° West 428 493 36,000  Level Chicago Center
Wed 02:13:28 PM 40.8189 -87.8225 287° West 428 493 36,000  Level Chicago Center
Wed 02:14:30 PM 40.8539 -87.9728 287° West 428 493 36,000  Level Chicago Center
Wed 02:15:32 PM 40.8881 -88.1236 287° West 428 493 36,000  Level Chicago Center
Wed 02:16:34 PM 40.9300 -88.3050 287° West 429 494 36,000  Level Chicago Center
Wed 02:17:36 PM 40.9636 -88.4583 286° West 431 496 36,000  Level Chicago Center
Wed 02:18:38 PM 40.9983 -88.6092 287° West 430 495 36,000  Level Chicago Center
Wed 02:19:40 PM 41.0300 -88.7594 286° West 425 489 36,000  Level Chicago Center
Wed 02:20:43 PM 41.0664 -88.9136 287° West 434 499 36,000  Level Chicago Center
Wed 02:21:45 PM 41.1075 -89.0972 287° West 434 499 36,000  Level Chicago Center
Wed 02:22:47 PM 41.1406 -89.2481 286° West 434 499 36,000  Level Chicago Center
Wed 02:23:49 PM 41.1742 -89.4014 286° West 435 501 36,000  Level Chicago Center
Wed 02:24:51 PM 41.2064 -89.5542 286° West 434 499 36,000  Level Chicago Center
Wed 02:25:53 PM 41.2397 -89.7086 286° West 437 503 36,000  Level Chicago Center
Wed 02:26:55 PM 41.2725 -89.8642 286° West 434 499 36,000  Level Chicago Center
Wed 02:27:57 PM 41.3111 -90.0453 286° West 434 499 36,000  Level Chicago Center
Wed 02:28:59 PM 41.3369 -90.2033 282° West 434 499 36,000  Level Chicago Center
Wed 02:30:02 PM 41.3453 -90.3611 274° West 438 504 36,000 -528 Level Chicago Center
Wed 02:31:04 PM 41.3575 -90.5186 276° West 436 502 34,900 -1,403 Descending Chicago Center
Wed 02:32:06 PM 41.3697 -90.6764 276° West 431 496 33,100 -1,306 Descending Chicago Center
Wed 02:33:08 PM 41.3858 -90.8647 277° West 431 496 32,200 -1,403 Descending Chicago Center
Wed 02:34:10 PM 41.4117 -91.0169 283° West 429 494 30,200 -1,935 Descending Chicago Center
Wed 02:35:12 PM 41.4467 -91.1722 287° West 437 503 28,200 -1,984 Descending Chicago Center
Wed 02:36:14 PM 41.4825 -91.3281 287° West 437 503 26,100 -1,839 Descending Chicago Center
Wed 02:37:16 PM 41.5178 -91.4783 287° West 431 496 24,400 -1,016 Descending Chicago Center
Wed 02:38:18 PM 41.5506 -91.6192 287° West 411 473 24,000 -823 Descending Chicago Center
Wed 02:39:20 PM 41.5894 -91.7872 287° West 401 461 22,700 -1,306 Descending Chicago Center
Wed 02:40:22 PM 41.6203 -91.9275 286° West 397 457 21,300 -1,344 Descending Chicago Center
Wed 02:41:25 PM 41.6528 -92.0675 287° West 396 456 19,900 -1,248 Descending Chicago Center
Wed 02:42:27 PM 41.6836 -92.2033 287° West 389 448 18,700 -1,016 Descending Chicago Center
Wed 02:43:29 PM 41.7133 -92.3336 287° West 375 432 17,800 -1,113 Descending Chicago Center
Wed 02:44:31 PM 41.7467 -92.4869 286° West 364 419 16,400 -1,306 Descending Chicago Center
Wed 02:45:33 PM 41.7747 -92.6139 287° West 359 413 15,100 -1,258 Descending Chicago Center
Wed 02:46:35 PM 41.8028 -92.7408 287° West 357 411 13,800 -1,210 Descending Chicago Center
Wed 02:47:37 PM 41.8306 -92.8672 286° West 356 410 12,600 -2,061 Descending Chicago Center
Wed 02:48:46 PM 41.8617 -93.0039 287° West 315 362 9,300 -2,519 Descending Minneapolis Center
Wed 02:49:48 PM 41.8817 -93.0994 286° West 247 284 7,100 -1,984 Descending Minneapolis Center
Wed 02:50:50 PM 41.8983 -93.1792 286° West 224 258 5,200 -1,500 Descending Minneapolis Center
Wed 02:51:52 PM 41.9164 -93.2692 285° West 231 266 4,000 -581 Descending Minneapolis Center
Wed 02:52:54 PM 41.9344 -93.3522 286° West 233 268 4,000 -145 Level Minneapolis Center
Wed 02:53:56 PM 41.9522 -93.4383 286° West 226 260 3,700 -242 Descending Minneapolis Center
Wed 02:54:58 PM 41.9678 -93.5106 286° West 225 259 3,500 -194 Descending Minneapolis Center
Wed 02:57:00 PM 41.9833 -93.6167 289° West  Level FlightAware Approximate
Wed 03:04:00 PM 41.9921 -93.6218 289° West  Level Estimated

Login

Don't have an account? Register now (free) for customized features, flight alerts, and more!